sensor_id;sensor_type;location;lat;lon;timestamp;temperature;humidity
81488;DHT22;70897;52.464;13.428;2023-07-20T00:01:12;16.60;99.10
81488;DHT22;70897;52.464;13.428;2023-07-20T00:03:57;16.60;99.00
81488;DHT22;70897;52.464;13.428;2023-07-20T00:06:42;16.60;98.90
81488;DHT22;70897;52.464;13.428;2023-07-20T00:09:27;16.50;98.80
81488;DHT22;70897;52.464;13.428;2023-07-20T00:12:13;16.50;98.90
81488;DHT22;70897;52.464;13.428;2023-07-20T00:14:58;16.50;98.90
81488;DHT22;70897;52.464;13.428;2023-07-20T00:17:43;16.50;99.00
81488;DHT22;70897;52.464;13.428;2023-07-20T00:20:29;16.40;98.90
81488;DHT22;70897;52.464;13.428;2023-07-20T00:23:14;16.40;98.90
81488;DHT22;70897;52.464;13.428;2023-07-20T00:25:59;16.40;99.00
81488;DHT22;70897;52.464;13.428;2023-07-20T00:28:44;16.40;99.10
81488;DHT22;70897;52.464;13.428;2023-07-20T00:31:29;16.30;99.00
81488;DHT22;70897;52.464;13.428;2023-07-20T00:34:15;16.30;99.00
81488;DHT22;70897;52.464;13.428;2023-07-20T00:37:00;16.20;99.10
81488;DHT22;70897;52.464;13.428;2023-07-20T00:39:45;16.30;99.20
81488;DHT22;70897;52.464;13.428;2023-07-20T00:42:31;16.20;99.20
81488;DHT22;70897;52.464;13.428;2023-07-20T00:45:15;16.20;99.20
81488;DHT22;70897;52.464;13.428;2023-07-20T00:48:01;16.10;99.10
81488;DHT22;70897;52.464;13.428;2023-07-20T00:50:46;16.10;99.10
81488;DHT22;70897;52.464;13.428;2023-07-20T00:53:33;16.10;99.30
81488;DHT22;70897;52.464;13.428;2023-07-20T00:56:19;16.10;99.20
81488;DHT22;70897;52.464;13.428;2023-07-20T00:59:05;16.10;99.30
81488;DHT22;70897;52.464;13.428;2023-07-20T01:01:50;16.10;99.40
81488;DHT22;70897;52.464;13.428;2023-07-20T01:04:35;16.10;99.40
81488;DHT22;70897;52.464;13.428;2023-07-20T01:07:46;16.10;99.50
81488;DHT22;70897;52.464;13.428;2023-07-20T01:10:39;16.10;99.40
81488;DHT22;70897;52.464;13.428;2023-07-20T01:13:25;16.10;99.30
81488;DHT22;70897;52.464;13.428;2023-07-20T01:16:11;16.10;99.30
81488;DHT22;70897;52.464;13.428;2023-07-20T01:18:56;16.10;99.30
81488;DHT22;70897;52.464;13.428;2023-07-20T01:27:42;16.00;99.20
81488;DHT22;70897;52.464;13.428;2023-07-20T01:30:43;15.90;99.20
81488;DHT22;70897;52.464;13.428;2023-07-20T01:33:32;15.90;99.40
81488;DHT22;70897;52.464;13.428;2023-07-20T01:36:18;15.90;99.50
81488;DHT22;70897;52.464;13.428;2023-07-20T01:39:05;16.00;99.50
81488;DHT22;70897;52.464;13.428;2023-07-20T01:41:51;16.00;99.50
81488;DHT22;70897;52.464;13.428;2023-07-20T01:44:37;16.00;99.40
81488;DHT22;70897;52.464;13.428;2023-07-20T01:47:22;16.00;99.40
81488;DHT22;70897;52.464;13.428;2023-07-20T01:50:07;16.00;99.40
81488;DHT22;70897;52.464;13.428;2023-07-20T01:52:53;16.00;99.70
81488;DHT22;70897;52.464;13.428;2023-07-20T01:55:38;16.00;99.40
81488;DHT22;70897;52.464;13.428;2023-07-20T01:58:23;16.00;99.40
81488;DHT22;70897;52.464;13.428;2023-07-20T02:01:09;15.90;99.20
81488;DHT22;70897;52.464;13.428;2023-07-20T02:03:54;16.00;99.20
81488;DHT22;70897;52.464;13.428;2023-07-20T02:06:39;15.90;99.20
81488;DHT22;70897;52.464;13.428;2023-07-20T02:09:24;15.90;99.20
81488;DHT22;70897;52.464;13.428;2023-07-20T02:12:09;15.90;99.30
81488;DHT22;70897;52.464;13.428;2023-07-20T02:14:54;15.80;99.30
81488;DHT22;70897;52.464;13.428;2023-07-20T02:17:39;15.80;99.30
81488;DHT22;70897;52.464;13.428;2023-07-20T02:20:25;15.80;99.40
81488;DHT22;70897;52.464;13.428;2023-07-20T02:23:10;15.70;99.40
81488;DHT22;70897;52.464;13.428;2023-07-20T02:25:56;15.70;99.70
81488;DHT22;70897;52.464;13.428;2023-07-20T02:28:41;15.70;99.40
81488;DHT22;70897;52.464;13.428;2023-07-20T02:31:26;15.60;99.30
81488;DHT22;70897;52.464;13.428;2023-07-20T02:34:11;15.60;99.30
81488;DHT22;70897;52.464;13.428;2023-07-20T02:36:56;15.60;99.30
81488;DHT22;70897;52.464;13.428;2023-07-20T02:39:42;15.50;99.10
81488;DHT22;70897;52.464;13.428;2023-07-20T02:42:28;15.50;99.20
81488;DHT22;70897;52.464;13.428;2023-07-20T02:45:13;15.40;99.10
81488;DHT22;70897;52.464;13.428;2023-07-20T02:47:58;15.50;99.30
81488;DHT22;70897;52.464;13.428;2023-07-20T02:50:44;15.50;99.40
81488;DHT22;70897;52.464;13.428;2023-07-20T02:53:28;15.50;99.40
81488;DHT22;70897;52.464;13.428;2023-07-20T02:56:13;15.50;99.30
81488;DHT22;70897;52.464;13.428;2023-07-20T02:59:00;15.60;99.40
81488;DHT22;70897;52.464;13.428;2023-07-20T03:01:45;15.60;99.20
81488;DHT22;70897;52.464;13.428;2023-07-20T03:04:30;15.70;99.10
81488;DHT22;70897;52.464;13.428;2023-07-20T03:07:15;15.80;98.90
81488;DHT22;70897;52.464;13.428;2023-07-20T03:10:00;15.90;98.90
81488;DHT22;70897;52.464;13.428;2023-07-20T03:12:45;15.90;98.70
81488;DHT22;70897;52.464;13.428;2023-07-20T03:15:30;16.00;98.40
81488;DHT22;70897;52.464;13.428;2023-07-20T03:18:16;16.00;98.20
81488;DHT22;70897;52.464;13.428;2023-07-20T03:21:01;16.10;97.70
81488;DHT22;70897;52.464;13.428;2023-07-20T03:23:46;16.10;97.50
81488;DHT22;70897;52.464;13.428;2023-07-20T03:26:31;16.10;97.60
81488;DHT22;70897;52.464;13.428;2023-07-20T03:29:16;16.00;97.20
81488;DHT22;70897;52.464;13.428;2023-07-20T03:32:03;16.10;97.00
81488;DHT22;70897;52.464;13.428;2023-07-20T03:34:47;16.10;97.00
81488;DHT22;70897;52.464;13.428;2023-07-20T03:37:32;16.20;97.30
81488;DHT22;70897;52.464;13.428;2023-07-20T03:40:19;16.10;97.20
81488;DHT22;70897;52.464;13.428;2023-07-20T03:43:04;16.20;97.50
81488;DHT22;70897;52.464;13.428;2023-07-20T03:45:50;16.20;97.20
81488;DHT22;70897;52.464;13.428;2023-07-20T03:48:36;16.10;97.10
81488;DHT22;70897;52.464;13.428;2023-07-20T03:51:21;16.20;97.30
81488;DHT22;70897;52.464;13.428;2023-07-20T03:54:05;16.20;97.30
81488;DHT22;70897;52.464;13.428;2023-07-20T03:56:50;16.20;97.20
81488;DHT22;70897;52.464;13.428;2023-07-20T03:59:37;16.20;97.40
81488;DHT22;70897;52.464;13.428;2023-07-20T04:02:22;16.30;97.40
81488;DHT22;70897;52.464;13.428;2023-07-20T04:05:07;16.30;97.40
81488;DHT22;70897;52.464;13.428;2023-07-20T04:07:52;16.30;97.20
81488;DHT22;70897;52.464;13.428;2023-07-20T04:10:38;16.30;96.60
81488;DHT22;70897;52.464;13.428;2023-07-20T04:13:23;16.30;96.50
81488;DHT22;70897;52.464;13.428;2023-07-20T04:16:08;16.30;96.50
81488;DHT22;70897;52.464;13.428;2023-07-20T04:18:56;16.30;96.70
81488;DHT22;70897;52.464;13.428;2023-07-20T04:21:41;16.30;97.10
81488;DHT22;70897;52.464;13.428;2023-07-20T04:24:27;16.40;97.00
81488;DHT22;70897;52.464;13.428;2023-07-20T04:27:12;16.40;97.00
81488;DHT22;70897;52.464;13.428;2023-07-20T04:30:00;16.50;97.00
81488;DHT22;70897;52.464;13.428;2023-07-20T04:32:45;16.50;96.90
81488;DHT22;70897;52.464;13.428;2023-07-20T04:38:33;16.60;96.50
81488;DHT22;70897;52.464;13.428;2023-07-20T04:41:30;16.60;96.30
81488;DHT22;70897;52.464;13.428;2023-07-20T04:44:15;16.60;96.00
81488;DHT22;70897;52.464;13.428;2023-07-20T04:47:01;16.70;95.80
81488;DHT22;70897;52.464;13.428;2023-07-20T04:49:48;16.70;95.80
81488;DHT22;70897;52.464;13.428;2023-07-20T04:52:33;16.80;96.10
81488;DHT22;70897;52.464;13.428;2023-07-20T04:55:18;16.90;95.80
81488;DHT22;70897;52.464;13.428;2023-07-20T04:58:03;17.00;95.60
81488;DHT22;70897;52.464;13.428;2023-07-20T05:00:50;17.10;95.40
81488;DHT22;70897;52.464;13.428;2023-07-20T05:03:35;17.30;94.90
81488;DHT22;70897;52.464;13.428;2023-07-20T05:06:20;17.40;94.70
81488;DHT22;70897;52.464;13.428;2023-07-20T05:09:05;17.60;94.30
81488;DHT22;70897;52.464;13.428;2023-07-20T05:11:51;17.80;94.00
81488;DHT22;70897;52.464;13.428;2023-07-20T05:14:36;18.10;93.40
81488;DHT22;70897;52.464;13.428;2023-07-20T05:17:21;18.40;92.60
81488;DHT22;70897;52.464;13.428;2023-07-20T05:20:07;18.50;92.10
81488;DHT22;70897;52.464;13.428;2023-07-20T05:22:54;18.40;91.10
81488;DHT22;70897;52.464;13.428;2023-07-20T05:25:39;18.60;91.20
81488;DHT22;70897;52.464;13.428;2023-07-20T05:28:25;18.70;90.80
81488;DHT22;70897;52.464;13.428;2023-07-20T05:31:11;18.60;90.20
81488;DHT22;70897;52.464;13.428;2023-07-20T05:33:56;18.40;90.10
81488;DHT22;70897;52.464;13.428;2023-07-20T05:36:41;18.40;90.00
81488;DHT22;70897;52.464;13.428;2023-07-20T05:39:26;18.50;90.00
81488;DHT22;70897;52.464;13.428;2023-07-20T05:42:11;18.70;89.00
81488;DHT22;70897;52.464;13.428;2023-07-20T05:44:56;18.90;88.70
81488;DHT22;70897;52.464;13.428;2023-07-20T05:47:42;19.70;87.00
81488;DHT22;70897;52.464;13.428;2023-07-20T05:50:26;21.20;83.10
81488;DHT22;70897;52.464;13.428;2023-07-20T05:53:12;21.90;76.60
81488;DHT22;70897;52.464;13.428;2023-07-20T05:55:57;21.90;73.00
81488;DHT22;70897;52.464;13.428;2023-07-20T05:58:42;21.70;74.30
81488;DHT22;70897;52.464;13.428;2023-07-20T06:01:27;21.40;74.70
81488;DHT22;70897;52.464;13.428;2023-07-20T06:04:13;21.00;74.10
81488;DHT22;70897;52.464;13.428;2023-07-20T06:06:58;20.50;76.40
81488;DHT22;70897;52.464;13.428;2023-07-20T06:09:43;20.10;78.20
81488;DHT22;70897;52.464;13.428;2023-07-20T06:12:28;19.70;80.10
81488;DHT22;70897;52.464;13.428;2023-07-20T06:15:28;19.30;81.70
81488;DHT22;70897;52.464;13.428;2023-07-20T06:18:14;18.90;83.60
81488;DHT22;70897;52.464;13.428;2023-07-20T06:20:59;18.70;85.20
81488;DHT22;70897;52.464;13.428;2023-07-20T06:23:44;18.60;86.80
81488;DHT22;70897;52.464;13.428;2023-07-20T06:26:29;18.40;87.40
81488;DHT22;70897;52.464;13.428;2023-07-20T06:29:14;18.40;87.80
81488;DHT22;70897;52.464;13.428;2023-07-20T06:31:59;18.40;87.90
81488;DHT22;70897;52.464;13.428;2023-07-20T06:34:44;18.50;87.90
81488;DHT22;70897;52.464;13.428;2023-07-20T06:37:29;18.70;86.20
81488;DHT22;70897;52.464;13.428;2023-07-20T06:40:14;18.90;86.00
81488;DHT22;70897;52.464;13.428;2023-07-20T06:42:59;19.20;84.50
81488;DHT22;70897;52.464;13.428;2023-07-20T06:45:44;19.50;82.00
81488;DHT22;70897;52.464;13.428;2023-07-20T06:48:29;19.70;81.10
81488;DHT22;70897;52.464;13.428;2023-07-20T06:51:14;20.10;78.60
81488;DHT22;70897;52.464;13.428;2023-07-20T06:53:59;20.10;78.50
81488;DHT22;70897;52.464;13.428;2023-07-20T06:56:44;20.00;79.00
81488;DHT22;70897;52.464;13.428;2023-07-20T06:59:29;19.80;78.60
81488;DHT22;70897;52.464;13.428;2023-07-20T07:02:14;20.20;79.10
81488;DHT22;70897;52.464;13.428;2023-07-20T07:04:59;22.20;73.20
81488;DHT22;70897;52.464;13.428;2023-07-20T07:07:45;24.30;64.70
81488;DHT22;70897;52.464;13.428;2023-07-20T07:10:30;26.00;56.90
81488;DHT22;70897;52.464;13.428;2023-07-20T07:13:15;25.90;55.70
81488;DHT22;70897;52.464;13.428;2023-07-20T07:16:00;26.20;53.40
81488;DHT22;70897;52.464;13.428;2023-07-20T07:18:45;26.50;52.00
81488;DHT22;70897;52.464;13.428;2023-07-20T07:21:31;27.70;50.20
81488;DHT22;70897;52.464;13.428;2023-07-20T07:24:16;28.00;47.20
81488;DHT22;70897;52.464;13.428;2023-07-20T07:27:01;28.40;46.80
81488;DHT22;70897;52.464;13.428;2023-07-20T07:29:46;29.00;46.10
81488;DHT22;70897;52.464;13.428;2023-07-20T07:32:32;29.10;44.20
81488;DHT22;70897;52.464;13.428;2023-07-20T07:35:17;27.90;46.30
81488;DHT22;70897;52.464;13.428;2023-07-20T07:38:02;26.60;48.30
81488;DHT22;70897;52.464;13.428;2023-07-20T07:40:47;26.20;50.60
81488;DHT22;70897;52.464;13.428;2023-07-20T07:43:32;26.60;48.30
81488;DHT22;70897;52.464;13.428;2023-07-20T07:46:17;27.20;48.00
81488;DHT22;70897;52.464;13.428;2023-07-20T07:49:02;27.60;47.20
81488;DHT22;70897;52.464;13.428;2023-07-20T07:51:47;28.50;46.10
81488;DHT22;70897;52.464;13.428;2023-07-20T07:54:33;29.70;43.60
81488;DHT22;70897;52.464;13.428;2023-07-20T07:57:18;31.30;40.50
81488;DHT22;70897;52.464;13.428;2023-07-20T08:00:03;30.70;40.10
81488;DHT22;70897;52.464;13.428;2023-07-20T08:02:50;29.80;40.70
81488;DHT22;70897;52.464;13.428;2023-07-20T08:05:35;29.40;42.60
81488;DHT22;70897;52.464;13.428;2023-07-20T08:08:20;30.00;40.30
81488;DHT22;70897;52.464;13.428;2023-07-20T08:11:05;30.80;38.80
81488;DHT22;70897;52.464;13.428;2023-07-20T08:13:50;30.40;39.10
81488;DHT22;70897;52.464;13.428;2023-07-20T08:16:35;29.70;39.90
81488;DHT22;70897;52.464;13.428;2023-07-20T08:19:20;28.70;40.80
81488;DHT22;70897;52.464;13.428;2023-07-20T08:22:05;28.20;42.20
81488;DHT22;70897;52.464;13.428;2023-07-20T08:24:50;27.40;43.60
81488;DHT22;70897;52.464;13.428;2023-07-20T08:27:36;26.60;45.90
81488;DHT22;70897;52.464;13.428;2023-07-20T08:30:22;26.10;48.10
81488;DHT22;70897;52.464;13.428;2023-07-20T08:33:12;25.90;48.90
81488;DHT22;70897;52.464;13.428;2023-07-20T08:35:58;25.90;47.70
81488;DHT22;70897;52.464;13.428;2023-07-20T08:38:43;26.50;46.80
81488;DHT22;70897;52.464;13.428;2023-07-20T08:41:28;26.50;44.80
81488;DHT22;70897;52.464;13.428;2023-07-20T08:44:13;26.30;45.80
81488;DHT22;70897;52.464;13.428;2023-07-20T08:46:59;26.40;46.50
81488;DHT22;70897;52.464;13.428;2023-07-20T08:49:48;28.00;44.00
81488;DHT22;70897;52.464;13.428;2023-07-20T08:52:34;29.40;41.70
81488;DHT22;70897;52.464;13.428;2023-07-20T08:55:20;29.10;40.80
81488;DHT22;70897;52.464;13.428;2023-07-20T08:58:08;29.10;41.20
81488;DHT22;70897;52.464;13.428;2023-07-20T09:00:54;29.00;40.20
81488;DHT22;70897;52.464;13.428;2023-07-20T09:03:41;29.20;41.20
81488;DHT22;70897;52.464;13.428;2023-07-20T09:06:27;29.00;40.10
81488;DHT22;70897;52.464;13.428;2023-07-20T09:09:12;29.30;40.50
81488;DHT22;70897;52.464;13.428;2023-07-20T09:11:57;30.00;40.00
81488;DHT22;70897;52.464;13.428;2023-07-20T09:14:43;31.00;38.20
81488;DHT22;70897;52.464;13.428;2023-07-20T09:17:28;31.80;36.40
81488;DHT22;70897;52.464;13.428;2023-07-20T09:20:14;31.20;33.20
81488;DHT22;70897;52.464;13.428;2023-07-20T09:23:00;30.30;35.40
81488;DHT22;70897;52.464;13.428;2023-07-20T09:25:48;30.80;35.70
81488;DHT22;70897;52.464;13.428;2023-07-20T09:28:43;30.50;36.00
81488;DHT22;70897;52.464;13.428;2023-07-20T09:31:28;29.70;37.30
81488;DHT22;70897;52.464;13.428;2023-07-20T09:34:13;29.00;38.70
81488;DHT22;70897;52.464;13.428;2023-07-20T09:37:01;28.50;39.70
81488;DHT22;70897;52.464;13.428;2023-07-20T09:39:47;27.80;40.40
81488;DHT22;70897;52.464;13.428;2023-07-20T09:42:32;27.30;41.70
81488;DHT22;70897;52.464;13.428;2023-07-20T09:45:17;27.70;40.50
81488;DHT22;70897;52.464;13.428;2023-07-20T09:48:07;27.80;40.00
81488;DHT22;70897;52.464;13.428;2023-07-20T09:50:53;27.70;41.20
81488;DHT22;70897;52.464;13.428;2023-07-20T09:53:38;27.60;40.90
81488;DHT22;70897;52.464;13.428;2023-07-20T09:56:24;27.20;42.00
81488;DHT22;70897;52.464;13.428;2023-07-20T09:59:09;26.80;42.50
81488;DHT22;70897;52.464;13.428;2023-07-20T10:01:58;26.50;43.60
81488;DHT22;70897;52.464;13.428;2023-07-20T10:04:44;26.20;44.30
81488;DHT22;70897;52.464;13.428;2023-07-20T10:07:30;25.60;45.00
81488;DHT22;70897;52.464;13.428;2023-07-20T10:10:17;25.00;46.20
81488;DHT22;70897;52.464;13.428;2023-07-20T10:13:03;24.40;46.30
81488;DHT22;70897;52.464;13.428;2023-07-20T10:15:50;23.90;48.30
81488;DHT22;70897;52.464;13.428;2023-07-20T10:18:49;23.60;49.50
81488;DHT22;70897;52.464;13.428;2023-07-20T10:21:42;23.30;50.60
81488;DHT22;70897;52.464;13.428;2023-07-20T10:24:32;23.00;51.50
81488;DHT22;70897;52.464;13.428;2023-07-20T10:27:19;22.80;53.10
81488;DHT22;70897;52.464;13.428;2023-07-20T10:30:05;23.10;53.00
81488;DHT22;70897;52.464;13.428;2023-07-20T10:32:51;25.00;50.50
81488;DHT22;70897;52.464;13.428;2023-07-20T10:36:03;27.00;45.10
81488;DHT22;70897;52.464;13.428;2023-07-20T10:38:54;27.60;41.80
81488;DHT22;70897;52.464;13.428;2023-07-20T10:41:40;27.20;42.70
81488;DHT22;70897;52.464;13.428;2023-07-20T10:44:25;26.80;42.90
81488;DHT22;70897;52.464;13.428;2023-07-20T10:47:12;26.40;44.00
81488;DHT22;70897;52.464;13.428;2023-07-20T10:49:59;25.90;44.50
81488;DHT22;70897;52.464;13.428;2023-07-20T10:53:04;25.20;45.90
81488;DHT22;70897;52.464;13.428;2023-07-20T10:56:11;24.50;48.50
81488;DHT22;70897;52.464;13.428;2023-07-20T10:59:00;24.40;49.10
81488;DHT22;70897;52.464;13.428;2023-07-20T11:01:47;24.30;49.30
81488;DHT22;70897;52.464;13.428;2023-07-20T11:04:44;24.40;50.00
81488;DHT22;70897;52.464;13.428;2023-07-20T11:07:37;24.40;49.40
81488;DHT22;70897;52.464;13.428;2023-07-20T11:10:25;24.10;49.90
81488;DHT22;70897;52.464;13.428;2023-07-20T11:13:21;24.00;50.70
81488;DHT22;70897;52.464;13.428;2023-07-20T11:16:07;24.00;51.10
81488;DHT22;70897;52.464;13.428;2023-07-20T11:18:52;24.20;50.80
81488;DHT22;70897;52.464;13.428;2023-07-20T11:21:41;24.40;50.60
81488;DHT22;70897;52.464;13.428;2023-07-20T11:24:26;24.30;49.90
81488;DHT22;70897;52.464;13.428;2023-07-20T11:27:11;24.20;50.10
81488;DHT22;70897;52.464;13.428;2023-07-20T11:29:56;24.10;50.10
81488;DHT22;70897;52.464;13.428;2023-07-20T11:32:48;23.90;50.10
81488;DHT22;70897;52.464;13.428;2023-07-20T11:35:42;23.80;51.10
81488;DHT22;70897;52.464;13.428;2023-07-20T11:38:28;23.70;50.80
81488;DHT22;70897;52.464;13.428;2023-07-20T11:41:13;23.70;51.00
81488;DHT22;70897;52.464;13.428;2023-07-20T11:43:58;23.80;51.70
81488;DHT22;70897;52.464;13.428;2023-07-20T11:46:44;24.00;51.00
81488;DHT22;70897;52.464;13.428;2023-07-20T11:49:30;24.40;50.10
81488;DHT22;70897;52.464;13.428;2023-07-20T11:52:16;25.00;49.10
81488;DHT22;70897;52.464;13.428;2023-07-20T11:55:01;25.10;48.00
81488;DHT22;70897;52.464;13.428;2023-07-20T11:58:07;25.80;47.10
81488;DHT22;70897;52.464;13.428;2023-07-20T12:00:52;26.70;45.00
81488;DHT22;70897;52.464;13.428;2023-07-20T12:03:39;27.10;42.90
81488;DHT22;70897;52.464;13.428;2023-07-20T12:06:27;27.60;42.10
81488;DHT22;70897;52.464;13.428;2023-07-20T12:09:16;28.10;41.50
81488;DHT22;70897;52.464;13.428;2023-07-20T12:12:09;28.20;41.80
81488;DHT22;70897;52.464;13.428;2023-07-20T12:14:55;28.10;41.50
81488;DHT22;70897;52.464;13.428;2023-07-20T12:17:44;27.30;42.30
81488;DHT22;70897;52.464;13.428;2023-07-20T12:20:33;26.60;43.00
81488;DHT22;70897;52.464;13.428;2023-07-20T12:23:20;26.20;43.00
81488;DHT22;70897;52.464;13.428;2023-07-20T12:26:07;25.60;44.70
81488;DHT22;70897;52.464;13.428;2023-07-20T12:28:53;25.10;46.30
81488;DHT22;70897;52.464;13.428;2023-07-20T12:31:38;24.50;47.80
81488;DHT22;70897;52.464;13.428;2023-07-20T12:34:23;23.90;48.80
81488;DHT22;70897;52.464;13.428;2023-07-20T12:37:08;23.60;50.30
81488;DHT22;70897;52.464;13.428;2023-07-20T12:39:53;23.30;51.40
81488;DHT22;70897;52.464;13.428;2023-07-20T12:42:38;23.00;52.30
81488;DHT22;70897;52.464;13.428;2023-07-20T12:45:23;22.90;51.70
81488;DHT22;70897;52.464;13.428;2023-07-20T12:48:08;22.80;51.50
81488;DHT22;70897;52.464;13.428;2023-07-20T12:50:53;22.90;50.90
81488;DHT22;70897;52.464;13.428;2023-07-20T12:53:38;23.00;49.50
81488;DHT22;70897;52.464;13.428;2023-07-20T12:56:23;23.60;48.50
81488;DHT22;70897;52.464;13.428;2023-07-20T12:59:08;24.60;46.70
81488;DHT22;70897;52.464;13.428;2023-07-20T13:01:53;25.70;45.20
81488;DHT22;70897;52.464;13.428;2023-07-20T13:04:38;26.30;42.50
81488;DHT22;70897;52.464;13.428;2023-07-20T13:07:37;27.10;41.10
81488;DHT22;70897;52.464;13.428;2023-07-20T13:10:22;27.80;38.90
81488;DHT22;70897;52.464;13.428;2023-07-20T13:13:07;28.30;37.50
81488;DHT22;70897;52.464;13.428;2023-07-20T13:15:52;28.70;35.60
81488;DHT22;70897;52.464;13.428;2023-07-20T13:18:38;28.50;33.50
81488;DHT22;70897;52.464;13.428;2023-07-20T13:21:23;28.60;33.40
81488;DHT22;70897;52.464;13.428;2023-07-20T13:24:09;28.80;33.00
81488;DHT22;70897;52.464;13.428;2023-07-20T13:26:54;28.50;31.80
81488;DHT22;70897;52.464;13.428;2023-07-20T13:29:39;28.60;31.50
81488;DHT22;70897;52.464;13.428;2023-07-20T13:32:26;28.40;31.70
81488;DHT22;70897;52.464;13.428;2023-07-20T13:35:11;28.70;31.00
81488;DHT22;70897;52.464;13.428;2023-07-20T13:37:57;28.40;30.00
81488;DHT22;70897;52.464;13.428;2023-07-20T13:40:42;27.80;30.80
81488;DHT22;70897;52.464;13.428;2023-07-20T13:43:27;27.40;32.00
81488;DHT22;70897;52.464;13.428;2023-07-20T13:46:11;27.20;32.60
81488;DHT22;70897;52.464;13.428;2023-07-20T13:48:57;27.40;33.50
81488;DHT22;70897;52.464;13.428;2023-07-20T13:51:42;27.60;33.10
81488;DHT22;70897;52.464;13.428;2023-07-20T13:54:27;27.60;32.20
81488;DHT22;70897;52.464;13.428;2023-07-20T13:57:12;27.80;32.10
81488;DHT22;70897;52.464;13.428;2023-07-20T13:59:57;27.70;32.30
81488;DHT22;70897;52.464;13.428;2023-07-20T14:02:44;26.80;33.00
81488;DHT22;70897;52.464;13.428;2023-07-20T14:05:29;26.60;34.60
81488;DHT22;70897;52.464;13.428;2023-07-20T14:08:14;26.40;35.20
81488;DHT22;70897;52.464;13.428;2023-07-20T14:10:59;26.30;36.40
81488;DHT22;70897;52.464;13.428;2023-07-20T14:13:44;26.30;36.50
81488;DHT22;70897;52.464;13.428;2023-07-20T14:16:29;26.60;35.20
81488;DHT22;70897;52.464;13.428;2023-07-20T14:19:16;26.90;34.10
81488;DHT22;70897;52.464;13.428;2023-07-20T14:22:02;27.40;33.50
81488;DHT22;70897;52.464;13.428;2023-07-20T14:24:48;27.20;33.10
81488;DHT22;70897;52.464;13.428;2023-07-20T14:27:33;27.50;33.30
81488;DHT22;70897;52.464;13.428;2023-07-20T14:30:18;27.50;32.50
81488;DHT22;70897;52.464;13.428;2023-07-20T14:33:03;27.60;32.70
81488;DHT22;70897;52.464;13.428;2023-07-20T14:35:48;27.70;32.00
81488;DHT22;70897;52.464;13.428;2023-07-20T14:38:34;27.60;32.10
81488;DHT22;70897;52.464;13.428;2023-07-20T14:41:20;27.20;32.40
81488;DHT22;70897;52.464;13.428;2023-07-20T14:44:05;27.30;33.70
81488;DHT22;70897;52.464;13.428;2023-07-20T14:46:50;27.40;33.30
81488;DHT22;70897;52.464;13.428;2023-07-20T14:49:35;27.60;33.40
81488;DHT22;70897;52.464;13.428;2023-07-20T14:52:20;27.10;33.10
81488;DHT22;70897;52.464;13.428;2023-07-20T14:55:06;26.70;33.60
81488;DHT22;70897;52.464;13.428;2023-07-20T14:57:51;26.50;33.40
81488;DHT22;70897;52.464;13.428;2023-07-20T15:00:36;26.50;34.20
81488;DHT22;70897;52.464;13.428;2023-07-20T15:03:21;26.80;34.30
81488;DHT22;70897;52.464;13.428;2023-07-20T15:06:10;26.70;33.10
81488;DHT22;70897;52.464;13.428;2023-07-20T15:08:56;26.60;33.20
81488;DHT22;70897;52.464;13.428;2023-07-20T15:11:41;26.70;33.50
81488;DHT22;70897;52.464;13.428;2023-07-20T15:14:28;26.80;32.70
81488;DHT22;70897;52.464;13.428;2023-07-20T15:17:13;26.80;33.00
81488;DHT22;70897;52.464;13.428;2023-07-20T15:19:58;26.90;32.60
81488;DHT22;70897;52.464;13.428;2023-07-20T15:22:43;26.80;33.00
81488;DHT22;70897;52.464;13.428;2023-07-20T15:25:28;26.70;33.10
81488;DHT22;70897;52.464;13.428;2023-07-20T15:28:13;26.50;32.40
81488;DHT22;70897;52.464;13.428;2023-07-20T15:31:03;26.10;32.70
81488;DHT22;70897;52.464;13.428;2023-07-20T15:33:48;25.80;33.90
81488;DHT22;70897;52.464;13.428;2023-07-20T15:36:33;25.50;34.50
81488;DHT22;70897;52.464;13.428;2023-07-20T15:39:19;25.40;35.20
81488;DHT22;70897;52.464;13.428;2023-07-20T15:42:05;25.20;35.50
81488;DHT22;70897;52.464;13.428;2023-07-20T15:44:51;24.80;35.30
81488;DHT22;70897;52.464;13.428;2023-07-20T15:47:36;24.60;35.80
81488;DHT22;70897;52.464;13.428;2023-07-20T15:50:21;24.30;36.50
81488;DHT22;70897;52.464;13.428;2023-07-20T15:53:06;24.20;37.10
81488;DHT22;70897;52.464;13.428;2023-07-20T15:55:54;24.30;37.60
81488;DHT22;70897;52.464;13.428;2023-07-20T15:58:40;24.20;37.70
81488;DHT22;70897;52.464;13.428;2023-07-20T16:01:26;24.20;37.80
81488;DHT22;70897;52.464;13.428;2023-07-20T16:04:12;24.10;38.00
81488;DHT22;70897;52.464;13.428;2023-07-20T16:06:58;24.00;38.30
81488;DHT22;70897;52.464;13.428;2023-07-20T16:09:43;23.90;38.50
81488;DHT22;70897;52.464;13.428;2023-07-20T16:12:28;23.90;38.90
81488;DHT22;70897;52.464;13.428;2023-07-20T16:15:16;23.90;38.40
81488;DHT22;70897;52.464;13.428;2023-07-20T16:18:00;23.90;38.30
81488;DHT22;70897;52.464;13.428;2023-07-20T16:20:45;23.80;38.80
81488;DHT22;70897;52.464;13.428;2023-07-20T16:23:30;23.80;39.00
81488;DHT22;70897;52.464;13.428;2023-07-20T16:26:16;23.80;39.60
81488;DHT22;70897;52.464;13.428;2023-07-20T16:29:01;23.60;39.70
81488;DHT22;70897;52.464;13.428;2023-07-20T16:31:46;23.50;39.50
81488;DHT22;70897;52.464;13.428;2023-07-20T16:34:31;23.50;39.90
81488;DHT22;70897;52.464;13.428;2023-07-20T16:37:16;23.50;40.30
81488;DHT22;70897;52.464;13.428;2023-07-20T16:40:02;23.50;40.60
81488;DHT22;70897;52.464;13.428;2023-07-20T16:42:50;23.50;41.10
81488;DHT22;70897;52.464;13.428;2023-07-20T16:45:35;23.50;41.20
81488;DHT22;70897;52.464;13.428;2023-07-20T16:48:20;23.40;41.00
81488;DHT22;70897;52.464;13.428;2023-07-20T16:51:05;23.20;41.40
81488;DHT22;70897;52.464;13.428;2023-07-20T16:53:50;23.00;41.70
81488;DHT22;70897;52.464;13.428;2023-07-20T16:56:35;22.90;41.80
81488;DHT22;70897;52.464;13.428;2023-07-20T16:59:20;22.70;41.60
81488;DHT22;70897;52.464;13.428;2023-07-20T17:02:05;22.60;41.90
81488;DHT22;70897;52.464;13.428;2023-07-20T17:04:51;22.50;42.00
81488;DHT22;70897;52.464;13.428;2023-07-20T17:07:39;22.40;43.10
81488;DHT22;70897;52.464;13.428;2023-07-20T17:10:24;22.50;43.70
81488;DHT22;70897;52.464;13.428;2023-07-20T17:13:09;22.40;44.20
81488;DHT22;70897;52.464;13.428;2023-07-20T17:15:55;22.40;44.20
81488;DHT22;70897;52.464;13.428;2023-07-20T17:18:40;22.30;44.50
81488;DHT22;70897;52.464;13.428;2023-07-20T17:21:25;22.30;44.70